West Union, Nebraska
Current Conditions -  °F | °C
As of 3:53 AM on Sunday 21 Dec 2014 (Local Time) from KBBW Reporting Station
Clear Clear  
Wind Chill: 29°   Ceiling: Unl
Heat Index: 29°   Visibility: 10mi
Dew Point: 25°   Wind: 3mph
Humidity: 85%   Direction: 230°SW
Pressure: 29.83"   Gusts: NA
Location:  41.685°N, 99.3848°W
Report Text: KBBW 210953Z AUTO 23003KT 10SM CLR M02/M04 A2983 RMK AO2 SLP118 T10171039
Loading
Personal Weather Stations






























Interactive Weather Map New forecast layout! Learn more

10-Day Weather Forecast

Advertisements
Track Severe Weather on mobile